Time;durP1;ratioP1;P1;durP2;ratioP2;P2;SDS_P1;SDS_P2;PMS_P1;PMS_P2;Temp;Humidity;BMP_temperature;BMP_pressure;BME280_temperature;BME280_humidity;BME280_pressure;Samples;Min_cycle;Max_cycle;Signal;HPM_P1;HPM_P2
2021/05/21 05:09:53;;;;;;;4.40;1.45;;;;;;;20.18;56.51;99977.68;1849673;76;28493;-63
2021/05/21 05:12:26;;;;;;;4.75;1.45;;;;;;;20.43;56.36;99976.05;1820259;77;21349;-63
2021/05/21 05:15:00;;;;;;;4.78;1.27;;;;;;;20.70;55.46;100000.27;1820835;77;21295;-72
2021/05/21 05:17:34;;;;;;;4.05;1.40;;;;;;;20.83;54.79;100001.55;1763492;80;21310;-65
2021/05/21 05:20:08;;;;;;;1.57;1.05;;;;;;;21.10;55.17;99994.35;1789655;78;21295;-60
2021/05/21 05:22:41;;;;;;;8.03;1.42;;;;;;;21.97;53.61;100020.67;1748672;80;21335;-65
2021/05/21 05:25:14;;;;;;;3.62;1.20;;;;;;;22.90;50.21;100007.41;1757736;80;21426;-73
2021/05/21 05:27:48;;;;;;;6.62;1.00;;;;;;;23.43;48.37;100011.92;1743060;79;21931;-72
2021/05/21 05:30:22;;;;;;;7.00;1.05;;;;;;;23.53;45.43;100013.23;1761158;79;22476;-63
2021/05/21 05:32:57;;;;;;;2.90;1.10;;;;;;;23.42;45.71;100012.98;1774964;79;21290;-68
2021/05/21 05:35:32;;;;;;;6.30;1.40;;;;;;;23.29;45.75;100022.45;1770569;79;21181;-64
2021/05/21 05:38:05;;;;;;;2.05;0.80;;;;;;;23.01;46.57;99998.13;1762279;80;21666;-67
2021/05/21 05:40:38;;;;;;;4.45;1.10;;;;;;;22.87;47.22;100000.66;1761182;80;21291;-65
2021/05/21 05:43:12;;;;;;;4.60;1.50;;;;;;;22.62;46.81;99998.53;1784614;78;21323;-65
2021/05/21 05:45:45;;;;;;;6.67;1.20;;;;;;;22.29;47.78;99992.64;1786162;79;21327;-70
2021/05/21 05:48:19;;;;;;;4.45;1.00;;;;;;;22.09;48.66;99998.95;1788252;78;21574;-71
2021/05/21 05:50:52;;;;;;;5.70;1.25;;;;;;;22.18;49.11;100002.70;1759815;80;21179;-68
2021/05/21 05:53:25;;;;;;;7.53;1.32;;;;;;;22.45;49.59;100005.45;1719841;81;21349;-70
2021/05/21 05:55:58;;;;;;;8.23;1.37;;;;;;;22.64;47.78;100001.28;1717379;81;21299;-67
2021/05/21 05:58:31;;;;;;;3.40;1.10;;;;;;;22.89;47.68;99992.41;1719352;81;21286;-68
2021/05/21 06:01:05;;;;;;;3.05;1.15;;;;;;;23.16;46.08;99991.09;1738882;81;21728;-66
2021/05/21 06:03:38;;;;;;;7.33;1.37;;;;;;;23.17;45.28;100000.70;1752524;80;21309;-61
2021/05/21 06:06:12;;;;;;;8.63;1.35;;;;;;;23.03;45.60;99997.39;1730702;81;21251;-63
2021/05/21 06:08:46;;;;;;;8.43;1.32;;;;;;;23.38;45.00;99985.61;1724791;81;21323;-65
2021/05/21 06:11:20;;;;;;;5.72;1.20;;;;;;;23.63;45.51;99978.27;1713045;81;21810;-65
2021/05/21 06:13:52;;;;;;;;;;;;;;;24.32;45.03;99970.94;1751629;80;21341;-66
2021/05/21 06:16:25;;;;;;;9.13;1.40;;;;;;;24.91;42.51;99975.23;1735094;81;20321;-61
2021/05/21 06:18:59;;;;;;;5.85;1.37;;;;;;;24.86;42.86;99976.48;1734009;81;21315;-63
2021/05/21 06:21:32;;;;;;;8.95;1.27;;;;;;;24.94;41.18;99965.39;1724651;81;22004;-70
2021/05/21 06:24:06;;;;;;;6.28;1.52;;;;;;;25.06;40.80;99966.17;1732179;81;21361;-62
2021/05/21 06:27:14;;;;;;;14.55;1.60;;;;;;;25.11;41.30;99962.27;1726534;81;21260;-62
2021/05/21 06:29:18;;;;;;;6.58;1.60;;;;;;;25.28;40.60;99966.34;1729459;81;21325;-65
2021/05/21 06:31:52;;;;;;;8.10;1.52;;;;;;;25.39;40.67;99958.78;1735135;81;21235;-62
2021/05/21 06:34:26;;;;;;;6.78;1.20;;;;;;;25.76;39.80;99956.55;1730058;81;21341;-68
2021/05/21 06:36:59;;;;;;;14.90;1.60;;;;;;;26.11;39.14;99953.14;1739069;81;21311;-64
2021/05/21 06:39:33;;;;;;;;;;;;;;;26.46;39.30;99948.86;1762664;80;21168;-66
2021/05/21 06:42:07;;;;;;;6.65;1.60;;;;;;;26.93;37.29;99966.70;1736679;81;20244;-71
2021/05/21 06:44:39;;;;;;;;;;;;;;;27.26;36.73;99969.26;1741966;81;21401;-73
2021/05/21 06:47:13;;;;;;;6.53;1.87;;;;;;;27.86;36.50;99952.97;1730854;81;20292;-72
2021/05/21 06:49:48;;;;;;;6.62;1.12;;;;;;;28.47;34.16;99946.98;1728968;81;21247;-70
2021/05/21 06:52:21;;;;;;;10.82;1.20;;;;;;;28.86;34.54;99961.50;1724320;81;21321;-67
2021/05/21 06:54:55;;;;;;;9.00;1.22;;;;;;;29.14;33.45;99952.99;1736158;81;21369;-68
2021/05/21 06:57:29;;;;;;;8.80;1.37;;;;;;;29.11;33.41;99950.28;1736210;81;21359;-68
2021/05/21 07:00:04;;;;;;;8.48;1.10;;;;;;;29.33;33.26;99950.93;1728936;81;21188;-67
2021/05/21 07:02:36;;;;;;;5.08;1.07;;;;;;;29.52;32.20;99955.84;1740455;81;21375;-69
2021/05/21 07:05:12;;;;;;;7.42;1.40;;;;;;;29.40;32.70;99962.02;1758847;80;21306;-71
2021/05/21 07:07:46;;;;;;;9.10;1.22;;;;;;;29.01;32.99;99959.70;1725783;81;21192;-68
2021/05/21 07:10:20;;;;;;;7.03;1.40;;;;;;;29.15;32.92;99961.36;1729259;82;21966;-62
2021/05/21 07:12:53;;;;;;;4.10;1.17;;;;;;;29.82;32.19;99957.26;1727428;81;21393;-71
2021/05/21 07:15:28;;;;;;;5.17;1.17;;;;;;;30.18;31.80;99958.06;1729050;81;21217;-69
2021/05/21 07:18:01;;;;;;;8.33;1.42;;;;;;;30.50;31.13;99959.92;1724719;81;21290;-66
2021/05/21 07:20:35;;;;;;;4.05;0.98;;;;;;;31.10;30.42;99950.30;1719740;81;21228;-65
2021/05/21 07:23:08;;;;;;;6.72;1.30;;;;;;;31.72;30.04;99958.34;1725614;81;21200;-70
2021/05/21 07:25:41;;;;;;;6.72;1.00;;;;;;;32.21;28.67;99945.52;1720248;81;21200;-69
2021/05/21 07:28:14;;;;;;;;;;;;;;;32.72;28.47;99936.33;1723276;82;21290;-65
2021/05/21 07:30:48;;;;;;;10.88;1.95;;;;;;;33.50;27.76;99934.52;1723964;82;20243;-63
2021/05/21 07:33:21;;;;;;;5.45;1.40;;;;;;;33.81;27.35;99932.42;1724313;81;21165;-70
2021/05/21 07:35:54;;;;;;;12.98;1.57;;;;;;;34.04;26.72;99933.42;1725249;81;22548;-70
2021/05/21 07:38:27;;;;;;;7.72;1.20;;;;;;;33.63;26.49;99935.14;1724069;81;21297;-65
2021/05/21 07:41:01;;;;;;;10.90;1.57;;;;;;;32.79;27.41;99927.33;1721756;81;21341;-63
2021/05/21 07:43:34;;;;;;;10.32;1.82;;;;;;;31.88;28.26;99948.47;1710559;81;21198;-65
2021/05/21 07:46:10;;;;;;;8.45;1.50;;;;;;;31.13;29.25;99933.53;1734722;81;21204;-66
2021/05/21 07:48:43;;;;;;;7.50;1.15;;;;;;;30.61;30.39;99925.06;1739745;81;21315;-65
2021/05/21 07:51:17;;;;;;;11.65;1.77;;;;;;;30.40;30.89;99928.91;1741480;80;21335;-72
2021/05/21 07:53:50;;;;;;;15.30;2.40;;;;;;;30.21;32.29;99934.05;1729499;81;21693;-66
2021/05/21 07:56:23;;;;;;;7.35;1.32;;;;;;;30.03;32.27;99935.12;1729272;81;21295;-68
2021/05/21 07:58:56;;;;;;;8.43;1.52;;;;;;;29.62;31.91;99942.35;1732285;81;21226;-69
2021/05/21 08:01:29;;;;;;;;;;;;;;;29.44;32.81;99932.08;1760908;80;21346;-68
2021/05/21 08:04:02;;;;;;;9.48;1.50;;;;;;;29.64;32.73;99936.17;1713129;81;20288;-65
2021/05/21 08:06:38;;;;;;;10.85;1.47;;;;;;;30.07;31.57;99942.40;1741717;80;21133;-64
2021/05/21 08:09:12;;;;;;;6.78;1.75;;;;;;;30.50;31.66;99948.59;1745997;81;21339;-66
2021/05/21 08:11:46;;;;;;;11.55;1.27;;;;;;;30.92;30.57;99930.66;1731733;81;21247;-72
2021/05/21 08:14:21;;;;;;;7.67;1.40;;;;;;;31.11;30.48;99939.77;1729657;81;21775;-63
2021/05/21 08:16:56;;;;;;;8.53;1.57;;;;;;;30.90;30.69;99943.64;1754803;80;21179;-65
2021/05/21 08:19:30;;;;;;;7.42;1.65;;;;;;;30.87;30.68;99944.70;1743515;80;21355;-69
2021/05/21 08:22:03;;;;;;;;;;;;;;;30.67;31.24;99944.78;1737629;81;21392;-66
2021/05/21 08:24:40;;;;;;;13.35;1.25;;;;;;;30.41;31.92;99958.33;1736324;81;20220;-62
2021/05/21 08:27:13;;;;;;;14.83;1.80;;;;;;;30.01;32.44;99954.30;1735414;81;22569;-63
2021/05/21 08:29:48;;;;;;;12.13;1.77;;;;;;;29.68;32.76;99954.25;1743118;81;21362;-64
2021/05/21 08:32:23;;;;;;;6.92;1.65;;;;;;;29.51;32.77;99948.82;1737861;81;21964;-63
2021/05/21 08:34:56;;;;;;;10.60;1.82;;;;;;;29.77;33.11;99945.11;1731772;81;21856;-65
2021/05/21 08:37:29;;;;;;;9.35;1.50;;;;;;;30.15;32.21;99948.61;1737586;81;21389;-66
2021/05/21 08:40:04;;;;;;;11.93;1.35;;;;;;;30.37;32.13;99949.16;1726273;81;22257;-71
2021/05/21 08:42:40;;;;;;;7.65;1.30;;;;;;;30.48;31.36;99939.95;1730821;81;21307;-65
2021/05/21 08:45:16;;;;;;;10.88;1.40;;;;;;;30.56;31.61;99943.98;1735877;81;21319;-63
2021/05/21 08:47:48;;;;;;;8.83;1.72;;;;;;;30.85;32.36;99951.74;1747589;81;21318;-66
2021/05/21 08:50:22;;;;;;;8.60;1.47;;;;;;;31.05;31.34;99951.67;1732473;81;21208;-62
2021/05/21 08:52:58;;;;;;;6.33;1.20;;;;;;;31.15;30.87;99952.98;1734663;81;21734;-66
2021/05/21 08:55:31;;;;;;;6.78;1.20;;;;;;;31.13;31.09;99949.75;1737459;81;21346;-63
2021/05/21 08:58:03;;;;;;;11.20;1.60;;;;;;;31.10;31.09;99948.95;1762290;80;21326;-63
2021/05/21 09:00:38;;;;;;;11.48;1.30;;;;;;;31.15;31.15;99950.28;1744034;80;21278;-68
2021/05/21 09:03:28;;;;;;;7.33;1.45;;;;;;;30.99;31.67;99947.92;1743800;80;21805;-61
2021/05/21 09:06:22;;;;;;;8.23;1.40;;;;;;;30.70;31.43;99953.13;1727624;81;21380;-63
2021/05/21 09:08:56;;;;;;;7.92;1.62;;;;;;;30.20;32.07;99949.97;1759916;80;21316;-64
2021/05/21 09:11:39;;;;;;;9.15;1.55;;;;;;;30.18;32.58;99958.88;1755665;80;21323;-65
2021/05/21 09:14:20;;;;;;;6.00;1.32;;;;;;;30.33;32.34;99956.70;1761792;80;21330;-66
2021/05/21 09:16:55;;;;;;;6.22;1.20;;;;;;;30.27;32.42;99957.25;1742892;80;21317;-67
2021/05/21 09:19:29;;;;;;;6.47;1.10;;;;;;;30.14;33.14;99952.95;1730431;81;21210;-66
2021/05/21 09:22:05;;;;;;;6.12;1.35;;;;;;;30.13;32.68;99956.18;1743867;81;21348;-65
2021/05/21 09:24:43;;;;;;;11.75;1.55;;;;;;;30.03;32.99;99958.06;1726046;81;21376;-63
2021/05/21 09:27:19;;;;;;;10.20;1.82;;;;;;;30.09;32.71;99961.86;1745437;81;22415;-66
2021/05/21 09:29:56;;;;;;;9.48;1.87;;;;;;;30.01;33.06;99961.05;1742785;80;21221;-65
2021/05/21 09:32:43;;;;;;;10.13;1.62;;;;;;;29.95;33.35;99968.85;1765584;80;21335;-64
2021/05/21 09:35:27;;;;;;;6.55;1.30;;;;;;;29.86;33.60;99963.73;1736280;80;21247;-62
2021/05/21 09:38:00;;;;;;;5.62;1.52;;;;;;;29.79;33.85;99965.34;1750052;80;21335;-65
2021/05/21 09:40:35;;;;;;;9.95;1.82;;;;;;;29.64;34.42;99967.20;1723680;81;21486;-63
2021/05/21 09:43:08;;;;;;;11.43;2.10;;;;;;;29.59;34.49;99966.62;1713964;81;21298;-69
2021/05/21 09:45:43;;;;;;;4.95;1.20;;;;;;;29.63;34.86;99970.96;1733876;80;21885;-63
2021/05/21 09:48:18;;;;;;;8.90;1.40;;;;;;;29.68;35.33;99969.63;1740417;80;21947;-67
2021/05/21 09:50:51;;;;;;;13.05;1.95;;;;;;;29.70;35.19;99975.56;1725678;82;22522;-66
2021/05/21 09:53:25;;;;;;;8.93;1.45;;;;;;;29.72;34.93;99974.75;1739499;81;21364;-63
2021/05/21 09:56:07;;;;;;;7.25;1.35;;;;;;;29.72;35.29;99970.70;1740899;81;21334;-67
2021/05/21 09:58:43;;;;;;;;;;;;;;;29.58;35.31;99966.38;1743465;80;21303;-64
2021/05/21 10:01:23;;;;;;;4.17;1.27;;;;;;;29.27;35.77;99972.23;1766471;80;20698;-60
2021/05/21 10:03:58;;;;;;;6.55;1.40;;;;;;;29.02;35.86;99978.04;1735612;81;21815;-61
2021/05/21 10:06:31;;;;;;;21.75;1.50;;;;;;;28.88;36.13;99979.03;1735258;81;21320;-67
2021/05/21 10:09:04;;;;;;;5.80;1.40;;;;;;;28.67;36.45;99974.61;1724471;81;21339;-64
2021/05/21 10:11:36;;;;;;;12.95;1.42;;;;;;;28.50;36.79;99965.85;1734891;80;21360;-65
2021/05/21 10:14:10;;;;;;;9.68;1.45;;;;;;;28.45;37.20;99979.28;1731422;80;21197;-69
2021/05/21 10:16:42;;;;;;;5.50;1.30;;;;;;;28.42;37.24;99975.78;1762880;80;21304;-66
2021/05/21 10:19:14;;;;;;;8.70;1.50;;;;;;;28.43;38.04;99976.04;1716089;81;21247;-68
2021/05/21 10:21:47;;;;;;;16.50;2.08;;;;;;;28.48;37.88;99976.89;1733099;80;22374;-60
2021/05/21 10:24:20;;;;;;;9.25;1.37;;;;;;;28.54;37.59;99977.19;1763490;80;21358;-60
2021/05/21 10:26:55;;;;;;;6.83;1.10;;;;;;;28.62;37.82;99977.27;1734654;80;21243;-62
2021/05/21 10:29:35;;;;;;;9.90;1.75;;;;;;;28.62;37.37;99972.70;1758259;80;22253;-65
2021/05/21 10:32:16;;;;;;;9.25;1.42;;;;;;;28.59;37.52;99975.91;1743117;81;21253;-65
2021/05/21 10:34:51;;;;;;;14.93;1.98;;;;;;;28.54;37.81;99975.05;1740858;81;21365;-62
2021/05/21 10:37:42;;;;;;;12.35;2.10;;;;;;;28.48;37.94;99976.89;1735642;81;21988;-60
2021/05/21 10:40:32;;;;;;;7.22;1.70;;;;;;;28.39;38.21;99977.64;1729146;81;22399;-65
2021/05/21 10:43:24;;;;;;;8.98;1.60;;;;;;;28.31;38.40;99984.31;1730010;81;21965;-61
2021/05/21 10:45:59;;;;;;;7.90;1.57;;;;;;;28.31;38.37;99982.96;1730042;81;21306;-61
2021/05/21 10:48:33;;;;;;;6.72;1.50;;;;;;;28.30;38.13;99976.50;1729193;81;21248;-62
2021/05/21 10:51:12;;;;;;;9.10;1.70;;;;;;;28.37;38.61;99983.30;1725412;81;21385;-64
2021/05/21 10:53:46;;;;;;;15.45;5.60;;;;;;;28.48;38.85;99986.32;1719748;81;21343;-60
2021/05/21 10:56:19;;;;;;;9.43;3.83;;;;;;;28.54;38.58;99992.56;1721419;81;21267;-57
2021/05/21 10:58:56;;;;;;;5.45;1.30;;;;;;;28.51;38.32;99989.85;1725554;81;21347;-59
2021/05/21 11:01:29;;;;;;;6.65;1.25;;;;;;;28.43;38.62;99985.47;1704068;82;21348;-60
2021/05/21 11:04:07;;;;;;;7.78;1.10;;;;;;;28.35;38.38;99977.33;1724734;81;21155;-59
2021/05/21 11:06:49;;;;;;;4.78;1.50;;;;;;;28.28;38.46;99978.65;1730268;81;21203;-59
2021/05/21 11:09:25;;;;;;;11.43;1.70;;;;;;;28.32;39.10;99986.47;1733991;81;21179;-62
2021/05/21 11:12:07;;;;;;;4.67;1.20;;;;;;;28.34;39.28;99978.42;1733748;81;21855;-61
2021/05/21 11:14:44;;;;;;;13.32;2.25;;;;;;;28.36;39.45;99976.80;1730912;81;21299;-64
2021/05/21 11:17:27;;;;;;;6.55;1.70;;;;;;;28.37;38.29;99977.91;1737211;81;21873;-62
2021/05/21 11:20:01;;;;;;;8.15;2.52;;;;;;;28.37;38.49;99984.64;1745758;80;21339;-62
2021/05/21 11:22:39;;;;;;;5.08;1.70;;;;;;;28.41;38.65;99972.80;1743481;80;21204;-60
2021/05/21 11:25:17;;;;;;;3.77;1.50;;;;;;;28.38;38.14;99975.48;1737137;80;21317;-61
2021/05/21 11:27:50;;;;;;;12.50;1.77;;;;;;;28.33;38.30;99979.47;1741471;81;21351;-63
2021/05/21 11:30:24;;;;;;;4.00;1.30;;;;;;;28.36;38.21;99970.89;1738767;81;21960;-61
2021/05/21 11:33:00;;;;;;;2.80;1.10;;;;;;;28.39;38.22;99972.25;1735131;81;21191;-64
2021/05/21 11:35:34;;;;;;;5.67;1.35;;;;;;;28.49;38.43;99978.50;1737664;81;21371;-62
2021/05/21 11:38:07;;;;;;;10.10;1.90;;;;;;;28.57;37.97;99980.72;1709035;82;21244;-63
2021/05/21 11:40:43;;;;;;;;;;;;;;;28.60;37.97;99982.11;1742643;81;21222;-62
2021/05/21 11:43:16;;;;;;;8.85;1.50;;;;;;;28.52;37.95;99977.99;1727498;81;20310;-59
2021/05/21 11:45:57;;;;;;;12.37;2.22;;;;;;;28.39;36.92;99980.33;1728343;81;21298;-59
2021/05/21 11:48:35;;;;;;;3.92;1.40;;;;;;;28.21;37.15;99969.95;1733946;81;21270;-62
2021/05/21 11:51:14;;;;;;;5.42;1.70;;;;;;;28.06;37.32;99962.59;1745452;80;21195;-61
2021/05/21 11:53:55;;;;;;;14.45;1.98;;;;;;;27.91;36.69;99966.46;1726642;81;21385;-61
2021/05/21 11:56:33;;;;;;;16.32;2.33;;;;;;;27.77;37.19;99955.31;1705348;81;22254;-62
2021/05/21 11:59:10;;;;;;;10.70;1.90;;;;;;;27.70;37.97;99967.34;1729250;81;21327;-63
2021/05/21 12:01:52;;;;;;;6.67;1.20;;;;;;;27.65;38.22;99960.05;1736775;81;21172;-58
2021/05/21 12:04:38;;;;;;;7.37;1.40;;;;;;;27.64;38.26;99965.13;1722724;81;21840;-58
2021/05/21 12:07:24;;;;;;;;;;;;;;;27.66;38.10;99964.34;1744390;81;21711;-60
2021/05/21 12:10:07;;;;;;;7.37;1.47;;;;;;;27.59;38.00;99954.84;1736285;81;20276;-60
2021/05/21 12:12:36;;;;;;;9.45;1.72;;;;;;;27.59;38.00;99954.84;1747905;81;21355;-57
2021/05/21 12:15:14;;;;;;;9.75;2.30;;;;;;;27.35;38.20;99961.02;1727943;81;21858;-59
2021/05/21 12:17:52;;;;;;;9.60;2.60;;;;;;;27.35;38.20;99961.02;1731203;81;21325;-59
2021/05/21 12:20:25;;;;;;;4.90;1.70;;;;;;;27.29;38.92;99957.48;1733354;81;21172;-58
2021/05/21 12:23:07;;;;;;;3.08;1.10;;;;;;;27.27;38.92;99947.49;1720530;81;21837;-61
2021/05/21 12:25:43;;;;;;;8.90;1.52;;;;;;;27.31;38.88;99947.29;1751148;80;21307;-58
2021/05/21 12:28:17;;;;;;;9.05;1.45;;;;;;;27.44;38.75;99950.68;1755212;80;21206;-58
2021/05/21 12:30:49;;;;;;;;;;;;;;;27.52;38.48;99956.92;1770563;80;21295;-60
2021/05/21 12:33:22;;;;;;;11.40;2.40;;;;;;;27.54;37.95;99948.89;1742016;80;20316;-60
2021/05/21 12:35:59;;;;;;;5.95;1.27;;;;;;;27.51;37.92;99954.80;1727142;80;21815;-63
2021/05/21 12:38:32;;;;;;;11.35;3.60;;;;;;;27.51;37.92;99954.80;1765976;80;21354;-60
2021/05/21 12:41:06;;;;;;;7.80;1.60;;;;;;;27.42;38.97;99949.57;1722469;82;21824;-59
2021/05/21 12:43:39;;;;;;;7.70;1.70;;;;;;;27.42;38.97;99949.57;1744422;79;21285;-61
2021/05/21 12:46:13;;;;;;;;;;;;;;;27.44;38.51;99955.53;1740330;81;21243;-61
2021/05/21 12:48:47;;;;;;;12.25;2.85;;;;;;;27.44;38.65;99959.56;1717867;80;20257;-63
2021/05/21 12:51:30;;;;;;;6.95;1.70;;;;;;;27.32;38.48;99970.40;1742106;81;21351;-60
2021/05/21 12:54:22;;;;;;;5.28;1.20;;;;;;;27.23;38.84;99971.09;1705158;81;21347;-64
2021/05/21 12:57:13;;;;;;;7.17;1.60;;;;;;;27.15;38.91;99965.66;1729949;81;21357;-61
2021/05/21 12:59:50;;;;;;;4.97;1.40;;;;;;;27.03;38.82;99958.26;1743582;81;21825;-61
2021/05/21 13:02:30;;;;;;;5.28;1.65;;;;;;;26.92;39.38;99971.26;1732968;81;21396;-62
2021/05/21 13:05:10;;;;;;;12.63;2.40;;;;;;;26.81;39.76;99975.41;1725338;81;22116;-62
2021/05/21 13:07:45;;;;;;;6.40;1.77;;;;;;;26.71;40.33;99978.73;1707250;82;21385;-61
2021/05/21 13:10:18;;;;;;;15.93;2.20;;;;;;;26.60;40.69;99971.61;1725089;81;21231;-63
2021/05/21 13:12:55;;;;;;;6.08;1.45;;;;;;;26.49;40.97;99969.82;1727960;82;21331;-64
2021/05/21 13:15:31;;;;;;;7.37;1.65;;;;;;;26.39;40.84;99973.16;1731669;81;21896;-63
2021/05/21 13:18:06;;;;;;;4.87;1.80;;;;;;;26.31;41.16;99986.20;1735494;81;21342;-61
2021/05/21 13:20:43;;;;;;;8.85;1.90;;;;;;;26.24;41.44;99985.55;1773268;80;21212;-63
2021/05/21 13:23:20;;;;;;;11.78;2.50;;;;;;;26.15;41.95;99984.34;1756908;80;21382;-62
2021/05/21 13:25:54;;;;;;;10.75;2.47;;;;;;;26.06;42.34;99988.72;1745613;80;21857;-62
2021/05/21 13:28:27;;;;;;;14.05;2.05;;;;;;;25.96;42.40;99985.07;1755880;80;21320;-63
2021/05/21 13:31:00;;;;;;;10.38;2.30;;;;;;;25.88;42.53;99985.45;1752864;80;21197;-62
2021/05/21 13:33:33;;;;;;;6.40;1.65;;;;;;;25.83;42.75;99992.07;1731827;81;21337;-64
2021/05/21 13:36:07;;;;;;;6.87;1.65;;;;;;;25.79;42.89;99983.70;1737323;81;21330;-63
2021/05/21 13:38:40;;;;;;;10.20;1.50;;;;;;;25.78;43.02;99982.59;1760841;80;21327;-63
2021/05/21 13:41:13;;;;;;;7.60;1.92;;;;;;;25.76;43.08;99988.20;1736206;80;21321;-62
2021/05/21 13:43:47;;;;;;;5.55;1.72;;;;;;;25.75;43.09;99991.93;1746657;80;21267;-62
2021/05/21 13:46:20;;;;;;;6.00;1.70;;;;;;;25.74;43.13;99997.02;1761262;80;21278;-62
2021/05/21 13:48:53;;;;;;;5.28;1.85;;;;;;;25.75;43.19;100005.85;1762563;80;21171;-61
2021/05/21 13:51:26;;;;;;;6.28;1.90;;;;;;;25.71;43.03;100000.70;1763925;80;21310;-61
2021/05/21 13:53:59;;;;;;;14.10;2.72;;;;;;;25.66;43.18;100001.94;1757787;80;21237;-61
2021/05/21 13:56:34;;;;;;;8.40;1.92;;;;;;;25.63;43.46;99999.73;1756421;80;21191;-62
2021/05/21 13:59:07;;;;;;;5.90;1.72;;;;;;;25.58;43.60;99996.98;1768724;80;21896;-60
2021/05/21 14:01:41;;;;;;;6.08;1.50;;;;;;;25.54;43.53;99997.16;1745730;81;21837;-61
2021/05/21 14:04:14;;;;;;;6.70;2.12;;;;;;;25.53;43.50;99991.52;1724090;82;21218;-60
2021/05/21 14:06:48;;;;;;;7.65;2.52;;;;;;;25.47;43.66;99981.22;1730534;81;21826;-64
2021/05/21 14:09:21;;;;;;;7.72;2.75;;;;;;;25.46;43.72;99982.81;1734262;81;21330;-60
2021/05/21 14:11:54;;;;;;;13.30;3.25;;;;;;;25.44;44.07;99993.75;1743720;81;21348;-62
2021/05/21 14:14:30;;;;;;;10.50;3.12;;;;;;;25.44;44.07;99993.75;1725290;81;21837;-62
2021/05/21 14:17:03;;;;;;;12.58;4.60;;;;;;;25.44;44.11;99991.07;1746201;81;21331;-62
2021/05/21 14:19:36;;;;;;;9.20;2.50;;;;;;;25.43;44.56;99986.20;1731307;81;21308;-62
2021/05/21 14:22:14;;;;;;;10.95;2.70;;;;;;;25.45;45.41;99983.85;1775277;79;21758;-61
2021/05/21 14:25:04;;;;;;;3.25;1.90;;;;;;;25.45;45.22;99980.66;1768839;80;21245;-63
2021/05/21 14:27:38;;;;;;;4.40;1.67;;;;;;;25.46;44.81;99978.79;1769386;80;21307;-62
2021/05/21 14:30:16;;;;;;;4.75;1.77;;;;;;;25.45;44.31;99985.19;1770112;79;22231;-63
2021/05/21 14:32:58;;;;;;;8.30;1.62;;;;;;;25.42;44.18;99990.47;1797185;79;21220;-63
2021/05/21 14:35:31;;;;;;;6.50;2.20;;;;;;;25.38;44.00;99987.47;1775558;79;21230;-63
2021/05/21 14:38:04;;;;;;;4.35;1.70;;;;;;;25.34;44.02;99990.31;1785648;79;21229;-63
2021/05/21 14:40:37;;;;;;;6.83;1.95;;;;;;;25.32;44.43;99988.41;1768769;79;21300;-63
2021/05/21 14:43:10;;;;;;;5.92;2.08;;;;;;;25.28;44.72;99984.58;1779350;79;21292;-63
2021/05/21 14:45:45;;;;;;;4.58;1.72;;;;;;;25.23;44.86;99982.31;1763017;79;21319;-60
2021/05/21 14:48:18;;;;;;;7.65;2.15;;;;;;;25.18;44.87;99984.38;1783341;79;21169;-62
2021/05/21 14:50:51;;;;;;;11.48;1.82;;;;;;;25.15;45.36;99989.41;1785653;79;21264;-63
2021/05/21 14:53:24;;;;;;;3.47;1.40;;;;;;;25.11;45.68;99982.36;1747896;81;21791;-61
2021/05/21 14:55:57;;;;;;;9.50;1.82;;;;;;;25.10;46.00;99982.60;1786326;79;22405;-60
2021/05/21 14:58:30;;;;;;;5.35;1.85;;;;;;;25.10;46.01;99985.28;1736710;81;21949;-61
2021/05/21 15:01:04;;;;;;;7.55;1.80;;;;;;;25.09;46.04;99983.13;1775462;79;21766;-61
2021/05/21 15:03:41;;;;;;;8.78;1.45;;;;;;;25.09;46.71;99992.50;1753902;80;21204;-61
2021/05/21 15:06:14;;;;;;;7.60;1.60;;;;;;;25.04;47.24;100000.94;1785980;79;21855;-59
2021/05/21 15:08:46;;;;;;;4.03;1.57;;;;;;;24.98;47.56;100000.02;1788020;79;21192;-63
2021/05/21 15:11:22;;;;;;;4.53;1.57;;;;;;;24.93;47.97;100000.45;1790421;79;21350;-63
2021/05/21 15:13:56;;;;;;;4.83;1.40;;;;;;;24.85;47.70;99996.78;1786517;79;21881;-62
2021/05/21 15:24:53;;;;;;;3.58;1.40;;;;;;;24.38;49.18;100006.66;1771492;79;21751;-61
2021/05/21 15:27:25;;;;;;;9.58;1.55;;;;;;;24.22;49.17;99998.77;1731566;82;21374;-60
2021/05/21 15:29:59;;;;;;;6.78;1.85;;;;;;;24.10;49.26;99998.76;1773299;79;21246;-60
2021/05/21 15:32:33;;;;;;;7.58;1.30;;;;;;;23.98;49.76;100003.23;1789998;79;21256;-61
2021/05/21 15:35:07;;;;;;;6.12;1.60;;;;;;;23.89;50.24;100003.79;1783546;80;21196;-61
2021/05/21 15:37:39;;;;;;;5.05;1.85;;;;;;;23.83;50.61;100008.21;1767646;80;21189;-60
2021/05/21 15:40:13;;;;;;;2.47;1.55;;;;;;;23.71;50.86;100006.53;1741182;81;21311;-61
2021/05/21 15:45:39;;;;;;;4.37;1.77;;;;;;;23.67;51.34;100000.81;1763323;80;21150;-61
2021/05/21 15:48:13;;;;;;;5.85;1.80;;;;;;;23.59;51.54;100001.66;1786296;80;21811;-62
2021/05/21 15:53:44;;;;;;;4.55;1.60;;;;;;;23.50;52.02;100031.87;1767376;80;21814;-60
2021/05/21 15:58:52;;;;;;;6.55;1.30;;;;;;;23.44;52.13;100026.92;1777587;79;21212;-62
2021/05/21 16:01:22;;;;;;;2.55;1.37;;;;;;;23.40;52.14;100023.05;1729528;81;21817;-59
2021/05/21 16:03:55;;;;;;;4.60;1.47;;;;;;;23.37;52.53;100019.52;1728101;81;21311;-62
2021/05/21 16:06:31;;;;;;;4.12;1.57;;;;;;;23.34;52.38;100023.93;1761041;80;21163;-63
2021/05/21 16:09:04;;;;;;;3.30;1.50;;;;;;;23.30;52.61;100024.61;1748031;80;21270;-61
2021/05/21 16:11:39;;;;;;;6.15;1.80;;;;;;;23.27;52.60;100029.88;1746685;80;21252;-63
2021/05/21 16:14:12;;;;;;;4.85;1.65;;;;;;;23.26;52.78;100027.44;1771695;80;21270;-61
2021/05/21 16:16:45;;;;;;;;;;;;;;;23.23;52.85;100020.69;1748244;80;21145;-61
2021/05/21 16:19:18;;;;;;;7.30;1.87;;;;;;;23.19;52.91;100031.49;1735719;81;20278;-62
2021/05/21 16:21:51;;;;;;;;;;;;;;;23.14;52.92;100030.02;1743530;80;21151;-61
2021/05/21 16:24:23;;;;;;;7.53;1.60;;;;;;;23.08;53.18;100032.76;1770632;80;20227;-61
2021/05/21 16:26:56;;;;;;;6.97;1.70;;;;;;;23.00;53.43;100039.20;1746816;80;21275;-61
2021/05/21 16:29:29;;;;;;;5.45;1.50;;;;;;;22.93;53.62;100033.12;1747993;80;21824;-60
2021/05/21 16:32:03;;;;;;;8.98;1.70;;;;;;;22.88;53.91;100031.62;1763917;80;21254;-64
2021/05/21 16:34:37;;;;;;;7.83;1.65;;;;;;;22.83;53.95;100033.34;1756362;80;21689;-61
2021/05/21 16:37:09;;;;;;;6.25;1.70;;;;;;;22.75;54.25;100039.27;1763610;80;21283;-63
2021/05/21 16:39:43;;;;;;;7.80;2.37;;;;;;;22.68;54.74;100043.03;1761816;80;21371;-63
2021/05/21 16:42:16;;;;;;;8.00;3.15;;;;;;;22.61;55.07;100042.27;1757121;80;21177;-62
2021/05/21 16:44:49;;;;;;;7.53;2.80;;;;;;;22.55;55.54;100048.44;1760672;80;21321;-62
2021/05/21 16:47:23;;;;;;;6.00;2.58;;;;;;;22.49;55.88;100053.33;1743528;81;21311;-62
2021/05/21 16:49:57;;;;;;;8.15;2.30;;;;;;;22.43;56.24;100051.00;1739420;80;21343;-62
2021/05/21 16:52:38;;;;;;;5.37;1.98;;;;;;;22.39;56.64;100046.32;1760345;80;21468;-61
2021/05/21 16:55:07;;;;;;;8.23;2.00;;;;;;;22.34;56.93;100048.82;1728631;81;21180;-61
2021/05/21 16:57:40;;;;;;;6.62;2.10;;;;;;;22.26;57.23;100043.77;1749971;81;21184;-62
2021/05/21 17:00:15;;;;;;;4.23;1.73;;;;;;;22.18;57.57;100044.02;1750913;80;21859;-61
2021/05/21 17:02:49;;;;;;;8.10;1.65;;;;;;;22.09;57.84;100045.61;1763535;80;21276;-61
2021/05/21 17:05:22;;;;;;;4.20;1.75;;;;;;;22.01;58.05;100057.87;1770657;80;21159;-60
2021/05/21 17:07:55;;;;;;;7.87;2.08;;;;;;;21.91;58.47;100056.70;1747228;80;21146;-61
2021/05/21 17:10:28;;;;;;;7.62;1.45;;;;;;;21.80;58.79;100056.03;1751714;80;21342;-61
2021/05/21 17:13:02;;;;;;;7.12;1.60;;;;;;;21.71;59.09;100062.09;1763652;80;21155;-61
2021/05/21 17:26:40;;;;;;;3.52;1.57;;;;;;;21.30;60.45;100067.00;1751420;80;21299;-60
2021/05/21 17:45:35;;;;;;;3.83;1.50;;;;;;;20.63;60.89;100093.38;1742265;81;21219;-62
2021/05/21 17:48:13;;;;;;;2.52;1.40;;;;;;;20.55;61.11;100095.41;1729441;82;21173;-60
2021/05/21 17:51:00;;;;;;;6.12;1.50;;;;;;;20.46;61.37;100099.30;1750089;81;21170;-61
2021/05/21 18:05:30;;;;;;;6.28;1.60;;;;;;;20.11;62.55;100111.37;1751808;81;21359;-60
2021/05/21 18:07:22;;;;;;;1.98;1.27;;;;;;;20.03;62.85;100111.56;1731347;81;21319;-60
2021/05/21 18:10:07;;;;;;;5.75;1.42;;;;;;;19.95;63.05;100116.23;1751403;81;21299;-59
2021/05/21 18:24:22;;;;;;;6.20;1.65;;;;;;;19.58;64.38;100124.17;1783394;79;21156;-58
2021/05/21 18:29:45;;;;;;;3.80;1.57;;;;;;;19.42;64.75;100129.28;1790879;79;21193;-60